Terminal Aerodrome Forecast
Issued by NWS

Home | Current Version | Previous Version | Text Only | Print | Product List | Glossary On
Versions: 1 2 3 4 5 6 7 8 9 10 11 12 13 14 15
000
FTUS46 KSTO 251500 AAA
TAFMHR
TAF AMD
KMHR 251534Z 2516/2612 24015KT 5SM -RA BKN040 OVC080
      TEMPO 2516/2518 1SM -RA BR OVC010
     FM251800 17015G25KT P6SM VCSH BKN050
     FM260000 18008KT P6SM BKN080
      AMD NOT SKED=

USA.gov is the U.S. government's official web portal to all federal, state and local government web resources and services.